Time;durP1;ratioP1;P1;durP2;ratioP2;P2;SDS_P1;SDS_P2;PMS_P1;PMS_P2;Temp;Humidity;BMP_temperature;BMP_pressure;BME280_temperature;BME280_humidity;BME280_pressure;Samples;Min_cycle;Max_cycle;Signal;HPM_P1;HPM_P2
2024/04/21 00:00:16;;;;;;;;;;;282.20;2278.40;;;;;;5396376;26;20428;-78
2024/04/21 00:02:42;;;;;;;3.78;2.45;;;282.10;2278.40;;;;;;5383251;26;20052;-77
2024/04/21 00:05:08;;;;;;;5.65;2.60;;;282.10;2278.40;;;;;;5399802;26;19999;-78
2024/04/21 00:07:34;;;;;;;4.85;2.90;;;282.10;2278.40;;;;;;5407077;26;20007;-78
2024/04/21 00:10:00;;;;;;;4.82;2.53;;;282.10;2278.40;;;;;;5409404;26;20006;-79
2024/04/21 00:12:26;;;;;;;5.60;2.40;;;282.00;2278.40;;;;;;5418073;26;19999;-78
2024/04/21 00:14:52;;;;;;;7.13;2.78;;;282.00;2278.40;;;;;;5391553;26;19998;-79
2024/04/21 00:17:17;;;;;;;5.47;2.53;;;282.00;2278.40;;;;;;5391706;26;20012;-80
2024/04/21 00:19:43;;;;;;;5.55;2.80;;;282.00;2278.40;;;;;;5412496;26;20012;-78
2024/04/21 00:22:09;;;;;;;3.75;2.28;;;281.90;2278.40;;;;;;5412808;26;20011;-78
2024/04/21 00:24:35;;;;;;;;;;;281.90;2278.40;;;;;;5396848;26;20026;-78
2024/04/21 00:27:01;;;;;;;8.00;2.67;;;281.90;2278.40;;;;;;5400689;26;19938;-79
2024/04/21 00:29:26;;;;;;;4.85;2.33;;;281.80;2278.40;;;;;;5398275;26;20001;-78
2024/04/21 00:31:52;;;;;;;6.28;2.40;;;281.70;2278.40;;;;;;5409204;26;20003;-78
2024/04/21 00:34:18;;;;;;;8.70;2.80;;;281.60;2278.40;;;;;;5389293;26;20000;-78
2024/04/21 00:36:44;;;;;;;7.47;3.30;;;281.60;2278.40;;;;;;5402695;26;20003;-79
2024/04/21 00:39:10;;;;;;;4.88;2.75;;;281.60;2278.40;;;;;;5407108;26;19995;-79
2024/04/21 00:41:35;;;;;;;7.10;3.17;;;281.70;2278.40;;;;;;5405464;26;20022;-77
2024/04/21 00:44:01;;;;;;;9.18;3.50;;;281.80;2278.40;;;;;;5403170;26;20000;-78
2024/04/21 00:46:28;;;;;;;7.13;2.83;;;281.90;2278.40;;;;;;5391160;26;19996;-78
2024/04/21 00:48:55;;;;;;;9.57;3.70;;;281.80;2278.40;;;;;;5407656;26;20019;-79
2024/04/21 00:51:22;;;;;;;6.55;3.25;;;281.80;2278.40;;;;;;5390427;26;19996;-79
2024/04/21 00:53:52;;;;;;;18.20;6.65;;;282.00;2278.40;;;;;;5393894;26;19999;-79
2024/04/21 00:56:22;;;;;;;17.58;8.80;;;281.90;2278.40;;;;;;5405400;26;20060;-80
2024/04/21 00:58:51;;;;;;;18.52;9.32;;;281.60;2278.40;;;;;;5396693;26;20021;-79
2024/04/21 01:01:16;;;;;;;18.63;9.30;;;256.90;2252.80;;;;;;5400726;26;19995;-79
2024/04/21 01:03:42;;;;;;;21.90;9.45;;;256.80;2252.80;;;;;;5386714;26;20015;-78
2024/04/21 01:06:08;;;;;;;23.48;9.82;;;256.90;2252.80;;;;;;5389096;26;20012;-78
2024/04/21 01:08:34;;;;;;;24.23;10.95;;;256.90;2252.80;;;;;;5398408;26;19992;-79
2024/04/21 01:11:00;;;;;;;20.00;9.63;;;256.90;2252.80;;;;;;5399955;26;20000;-78
2024/04/21 01:13:26;;;;;;;;;;;256.80;2252.80;;;;;;5389280;26;20444;-78
2024/04/21 01:15:55;;;;;;;15.27;7.50;;;256.70;2252.80;;;;;;5411530;26;20265;-77
2024/04/21 01:18:21;;;;;;;17.70;7.30;;;256.60;2252.80;;;;;;5410415;26;20023;-79
2024/04/21 01:20:47;;;;;;;15.70;6.45;;;256.50;2252.80;;;;;;5399590;26;20313;-80
2024/04/21 01:23:13;;;;;;;12.32;4.90;;;256.60;2252.80;;;;;;5393260;26;20328;-78
2024/04/21 01:25:40;;;;;;;15.27;5.45;;;256.60;2252.80;;;;;;5390788;26;20004;-77
2024/04/21 01:28:05;;;;;;;8.32;3.88;;;256.50;2252.80;;;;;;5409337;26;20076;-77
2024/04/21 01:30:34;;;;;;;10.05;5.32;;;256.60;2252.80;;;;;;5414431;26;20004;-77
2024/04/21 01:33:00;;;;;;;8.93;4.30;;;256.50;2252.80;;;;;;5396945;26;20006;-76
2024/04/21 01:35:26;;;;;;;8.63;4.25;;;256.50;2252.80;;;;;;5394817;26;20000;-77
2024/04/21 01:37:51;;;;;;;12.15;4.35;;;256.60;2252.80;;;;;;5399711;26;20318;-77
2024/04/21 01:40:18;;;;;;;6.28;2.80;;;256.50;2252.80;;;;;;5394490;26;20000;-78
2024/04/21 01:42:44;;;;;;;10.27;4.60;;;256.60;2252.80;;;;;;5409494;26;20004;-78
2024/04/21 01:45:10;;;;;;;6.90;3.60;;;256.60;2252.80;;;;;;5396496;26;20336;-78
2024/04/21 01:47:36;;;;;;;5.47;2.95;;;256.60;2252.80;;;;;;5391001;26;19996;-77
2024/04/21 01:50:07;;;;;;;;;;;256.60;2252.80;;;;;;5395114;26;20023;-82
2024/04/21 01:52:33;;;;;;;15.07;3.70;;;256.60;2252.80;;;;;;5408853;26;19932;-80
2024/04/21 01:54:59;;;;;;;8.70;4.22;;;256.50;2252.80;;;;;;5418440;26;20011;-78
2024/04/21 01:57:25;;;;;;;6.93;3.08;;;256.50;2252.80;;;;;;5403464;26;20010;-78
2024/04/21 01:59:50;;;;;;;6.68;3.28;;;256.50;2252.80;;;;;;5383579;26;20008;-79
2024/04/21 02:02:16;;;;;;;;;;;256.50;2252.80;;;;;;5382587;26;20001;-78
2024/04/21 02:04:42;;;;;;;7.57;3.45;;;256.40;2252.80;;;;;;5381783;26;19933;-77
2024/04/21 02:07:10;;;;;;;;;;;256.40;2252.80;;;;;;5382423;26;20008;-78
2024/04/21 02:09:36;;;;;;;5.53;3.28;;;256.40;2252.80;;;;;;5381680;26;20023;-77
2024/04/21 02:12:02;;;;;;;4.07;2.22;;;256.40;2252.80;;;;;;5381399;26;20332;-78
2024/04/21 02:14:28;;;;;;;4.60;2.90;;;256.40;2252.80;;;;;;5383996;26;20024;-79
2024/04/21 02:16:54;;;;;;;4.78;2.72;;;256.30;2252.80;;;;;;5381893;26;19996;-78
2024/04/21 02:19:20;;;;;;;6.25;2.60;;;256.20;2252.80;;;;;;5383651;26;20367;-78
2024/04/21 02:21:46;;;;;;;5.38;3.08;;;256.20;2252.80;;;;;;5383430;26;20000;-78
2024/04/21 02:24:12;;;;;;;8.02;3.08;;;256.20;2252.80;;;;;;5382667;26;20035;-77
2024/04/21 02:26:38;;;;;;;7.13;3.50;;;256.20;2252.80;;;;;;5381442;26;20004;-78
2024/04/21 02:29:04;;;;;;;7.60;3.72;;;256.20;2252.80;;;;;;5383268;26;19996;-78
2024/04/21 02:31:30;;;;;;;7.40;3.88;;;256.10;2252.80;;;;;;5383181;26;20004;-78
2024/04/21 02:33:56;;;;;;;6.55;3.65;;;256.00;2252.80;;;;;;5381476;26;20332;-79
2024/04/21 02:36:22;;;;;;;6.43;3.40;;;256.00;2252.80;;;;;;5381473;26;20012;-78
2024/04/21 02:38:48;;;;;;;8.10;3.85;;;231.20;2252.80;;;;;;5383175;26;20349;-78
2024/04/21 02:41:14;;;;;;;8.25;3.35;;;231.30;2252.80;;;;;;5382924;26;20007;-78
2024/04/21 02:43:40;;;;;;;7.05;3.75;;;231.30;2252.80;;;;;;5382011;26;19996;-79
2024/04/21 02:46:06;;;;;;;;;;;256.00;2252.80;;;;;;5383341;26;20011;-79
2024/04/21 02:48:32;;;;;;;6.35;2.65;;;256.10;2252.80;;;;;;5382839;26;19925;-78
2024/04/21 02:50:59;;;;;;;7.03;3.80;;;256.00;2252.80;;;;;;5382868;26;19996;-78
2024/04/21 02:53:25;;;;;;;6.28;3.58;;;256.00;2252.80;;;;;;5381989;26;20061;-79
2024/04/21 02:55:53;;;;;;;11.45;4.10;;;256.10;2252.80;;;;;;5413757;26;20012;-78
2024/04/21 02:58:19;;;;;;;6.70;3.30;;;256.10;2252.80;;;;;;5418026;26;20064;-79
2024/04/21 03:00:45;;;;;;;5.35;3.50;;;231.20;2252.80;;;;;;5417008;26;20008;-79
2024/04/21 03:03:11;;;;;;;6.05;3.70;;;231.30;2252.80;;;;;;5418510;26;20015;-78
2024/04/21 03:05:37;;;;;;;5.22;3.28;;;256.10;2252.80;;;;;;5415754;26;19996;-78
2024/04/21 03:08:03;;;;;;;7.43;3.88;;;256.20;2252.80;;;;;;5418029;26;19999;-80
2024/04/21 03:10:29;;;;;;;5.97;3.25;;;256.00;2252.80;;;;;;5416322;26;19999;-79
2024/04/21 03:12:58;;;;;;;7.68;3.42;;;256.10;2252.80;;;;;;5415057;26;20526;-79
2024/04/21 03:15:25;;;;;;;7.43;3.40;;;256.10;2252.80;;;;;;5414711;26;20007;-79
2024/04/21 03:17:51;;;;;;;8.50;3.47;;;256.10;2252.80;;;;;;5417929;26;19995;-78
2024/04/21 03:20:17;;;;;;;6.15;4.07;;;231.30;2252.80;;;;;;5416353;26;20015;-78
2024/04/21 03:22:43;;;;;;;9.60;4.50;;;231.30;2252.80;;;;;;5418218;26;20473;-79
2024/04/21 03:25:09;;;;;;;;;;;256.00;2252.80;;;;;;5418236;26;20467;-78
2024/04/21 03:27:34;;;;;;;7.82;3.97;;;231.30;2252.80;;;;;;5415826;26;19925;-78
2024/04/21 03:30:00;;;;;;;5.88;3.80;;;231.30;2252.80;;;;;;5421370;26;20097;-78
2024/04/21 03:32:26;;;;;;;6.20;4.05;;;231.30;2252.80;;;;;;5420571;26;20012;-78
2024/04/21 03:34:53;;;;;;;6.18;3.63;;;231.10;2252.80;;;;;;5413265;26;20353;-78
2024/04/21 03:37:19;;;;;;;5.75;3.10;;;231.10;2252.80;;;;;;5403612;26;20015;-79
2024/04/21 03:39:45;;;;;;;6.15;3.78;;;231.10;2252.80;;;;;;5413528;26;20004;-78
2024/04/21 03:42:11;;;;;;;8.48;3.90;;;231.10;2252.80;;;;;;5405576;26;20015;-78
2024/04/21 03:44:37;;;;;;;6.78;3.95;;;231.10;2252.80;;;;;;5398042;26;20000;-78
2024/04/21 03:47:03;;;;;;;6.07;3.60;;;231.10;2252.80;;;;;;5400415;26;20074;-78
2024/04/21 03:49:29;;;;;;;6.60;3.67;;;231.10;2252.80;;;;;;5416113;26;20007;-79
2024/04/21 03:51:54;;;;;;;6.47;3.95;;;230.90;2252.80;;;;;;5420872;26;19999;-80
2024/04/21 03:54:20;;;;;;;5.47;3.58;;;231.00;2252.80;;;;;;5418827;26;20010;-79
2024/04/21 03:56:46;;;;;;;;;;;231.00;2252.80;;;;;;5421177;26;19995;-77
2024/04/21 03:59:12;;;;;;;6.22;3.75;;;231.00;2252.80;;;;;;5419205;26;19957;-77
2024/04/21 04:01:37;;;;;;;;;;;231.00;2252.80;;;;;;5421055;26;20078;-78
2024/04/21 04:04:03;;;;;;;5.90;3.60;;;230.90;2252.80;;;;;;5420829;26;19990;-79
2024/04/21 04:06:29;;;;;;;;;;;231.00;2252.80;;;;;;5421524;26;20019;-78
2024/04/21 04:08:58;;;;;;;6.83;3.83;;;231.10;2252.80;;;;;;5421245;26;19925;-77
2024/04/21 04:11:24;;;;;;;6.28;3.50;;;230.90;2252.80;;;;;;5418653;26;20424;-78
2024/04/21 04:13:50;;;;;;;7.05;4.40;;;231.00;2252.80;;;;;;5418043;26;20034;-78
2024/04/21 04:16:16;;;;;;;6.88;4.20;;;230.90;2252.80;;;;;;5420242;26;19995;-78
2024/04/21 04:18:41;;;;;;;9.93;4.78;;;231.00;2252.80;;;;;;5420043;26;19995;-78
2024/04/21 04:21:08;;;;;;;7.97;5.18;;;231.00;2252.80;;;;;;5420306;26;19999;-78
2024/04/21 04:23:34;;;;;;;6.35;4.47;;;231.00;2252.80;;;;;;5420676;26;20000;-78
2024/04/21 04:26:00;;;;;;;6.28;4.50;;;231.00;2252.80;;;;;;5417725;26;20442;-78
2024/04/21 04:28:26;;;;;;;;;;;231.00;2252.80;;;;;;5421181;26;19991;-78
2024/04/21 04:30:52;;;;;;;8.47;5.53;;;231.00;2252.80;;;;;;5418334;26;19933;-79
2024/04/21 04:33:18;;;;;;;12.13;5.55;;;230.90;2252.80;;;;;;5420078;26;19992;-79
2024/04/21 04:35:44;;;;;;;6.45;4.35;;;231.00;2252.80;;;;;;5420412;26;20000;-78
2024/04/21 04:38:10;;;;;;;8.98;5.20;;;231.00;2252.80;;;;;;5418617;26;20354;-79
2024/04/21 04:40:36;;;;;;;8.57;5.15;;;231.00;2252.80;;;;;;5419155;26;19999;-79
2024/04/21 04:43:02;;;;;;;;;;;230.90;2252.80;;;;;;5420747;26;20447;-79
2024/04/21 04:45:27;;;;;;;7.88;5.40;;;231.00;2252.80;;;;;;5420416;26;19925;-78
2024/04/21 04:47:53;;;;;;;;;;;231.00;2252.80;;;;;;5417825;26;20003;-79
2024/04/21 04:50:19;;;;;;;7.15;4.43;;;231.00;2252.80;;;;;;5418685;26;20365;-80
2024/04/21 04:52:45;;;;;;;;;;;231.00;2252.80;;;;;;5420834;26;20016;-78
2024/04/21 04:55:11;;;;;;;6.90;5.03;;;230.90;2252.80;;;;;;5417964;26;20355;-78
2024/04/21 04:57:36;;;;;;;7.72;5.32;;;231.00;2252.80;;;;;;5418041;26;20035;-79
2024/04/21 05:00:04;;;;;;;9.70;4.75;;;230.90;2252.80;;;;;;5420390;26;19991;-77
2024/04/21 05:02:30;;;;;;;7.88;5.72;;;231.00;2252.80;;;;;;5417476;26;20328;-78
2024/04/21 05:04:56;;;;;;;6.97;4.60;;;230.90;2252.80;;;;;;5417548;26;20013;-78
2024/04/21 05:07:22;;;;;;;;;;;231.00;2252.80;;;;;;5420610;26;20339;-79
2024/04/21 05:09:48;;;;;;;7.32;4.97;;;231.10;2252.80;;;;;;5417681;26;19926;-79
2024/04/21 05:12:13;;;;;;;;;;;231.10;2252.80;;;;;;5418618;26;20006;-77
2024/04/21 05:14:39;;;;;;;7.05;4.60;;;231.00;2252.80;;;;;;5420346;26;19932;-77
2024/04/21 05:17:05;;;;;;;;;;;231.00;2252.80;;;;;;5417920;26;20001;-79
2024/04/21 05:19:31;;;;;;;8.18;4.25;;;231.20;2252.80;;;;;;5417014;26;19957;-81
2024/04/21 05:21:56;;;;;;;;;;;231.20;2252.80;;;;;;5411882;26;20624;-78
2024/04/21 05:24:22;;;;;;;7.40;5.15;;;231.30;2252.80;;;;;;5403401;26;20340;-74
2024/04/21 05:26:48;;;;;;;8.60;5.43;;;256.10;2252.80;;;;;;5419268;26;20003;-84
2024/04/21 05:29:14;;;;;;;6.65;4.32;;;231.30;2252.80;;;;;;5411288;26;20082;-77
2024/04/21 05:31:39;;;;;;;;;;;231.10;2252.80;;;;;;5417316;26;19995;-79
2024/04/21 05:34:05;;;;;;;7.07;4.65;;;231.30;2252.80;;;;;;5419669;26;19932;-77
2024/04/21 05:36:31;;;;;;;11.10;4.85;;;231.30;2252.80;;;;;;5419721;26;19995;-77
2024/04/21 05:38:57;;;;;;;10.38;5.10;;;231.30;2252.80;;;;;;5419402;26;20003;-82
2024/04/21 05:41:23;;;;;;;7.82;4.97;;;231.30;2252.80;;;;;;5417389;26;20000;-77
2024/04/21 05:43:48;;;;;;;12.30;5.07;;;231.20;2252.80;;;;;;5419526;26;20441;-77
2024/04/21 05:46:14;;;;;;;7.38;5.25;;;231.20;2252.80;;;;;;5411492;26;20004;-77
2024/04/21 05:48:40;;;;;;;;;;;231.30;2252.80;;;;;;5393155;26;20004;-76
2024/04/21 05:51:06;;;;;;;11.00;6.28;;;256.10;2252.80;;;;;;5422602;26;19926;-78
2024/04/21 05:53:31;;;;;;;;;;;256.30;2252.80;;;;;;5401760;26;20011;-77
2024/04/21 05:55:57;;;;;;;7.13;4.75;;;256.00;2252.80;;;;;;5401555;26;20377;-77
2024/04/21 05:58:23;;;;;;;;;;;256.10;2252.80;;;;;;5408781;26;19999;-78
2024/04/21 06:00:49;;;;;;;8.73;5.75;;;256.20;2252.80;;;;;;5394095;26;19998;-79
2024/04/21 06:03:14;;;;;;;;;;;256.20;2252.80;;;;;;5401414;26;20006;-79
2024/04/21 06:05:42;;;;;;;9.90;5.07;;;256.30;2252.80;;;;;;5405914;26;19925;-78
2024/04/21 06:08:08;;;;;;;8.70;4.88;;;256.50;2252.80;;;;;;5416555;26;20007;-78
2024/04/21 06:10:33;;;;;;;6.78;4.57;;;256.50;2252.80;;;;;;5408282;26;20019;-79
2024/04/21 06:12:59;;;;;;;6.88;3.88;;;256.60;2252.80;;;;;;5398344;26;20000;-78
2024/04/21 06:15:25;;;;;;;9.93;5.05;;;256.70;2252.80;;;;;;5399393;26;20008;-81
2024/04/21 06:17:51;;;;;;;8.23;4.80;;;256.80;2252.80;;;;;;5406092;26;20007;-80
2024/04/21 06:20:17;;;;;;;6.80;4.68;;;256.90;2252.80;;;;;;5413501;26;20000;-81
2024/04/21 06:22:42;;;;;;;9.05;5.07;;;281.70;2278.40;;;;;;5404834;26;19999;-77
2024/04/21 06:25:08;;;;;;;7.63;4.47;;;281.80;2278.40;;;;;;5398554;26;19999;-77
2024/04/21 06:27:35;;;;;;;6.80;4.93;;;281.80;2278.40;;;;;;5401604;26;20444;-78
2024/04/21 06:30:01;;;;;;;13.98;7.75;;;281.80;2278.40;;;;;;5404331;26;20004;-80
2024/04/21 06:32:27;;;;;;;23.77;13.55;;;282.00;2278.40;;;;;;5412373;26;19999;-79
2024/04/21 06:34:53;;;;;;;7.40;5.65;;;282.10;2278.40;;;;;;5410290;26;20471;-78
2024/04/21 06:37:18;;;;;;;11.30;7.22;;;282.30;2278.40;;;;;;5410175;26;19992;-77
2024/04/21 06:39:44;;;;;;;;;;;282.50;2278.40;;;;;;5416269;26;20068;-78
2024/04/21 06:42:10;;;;;;;18.92;9.43;;;282.50;2278.40;;;;;;5399230;26;20350;-79
2024/04/21 06:44:36;;;;;;;;;;;307.20;2304.00;;;;;;5404429;26;20464;-80
2024/04/21 06:47:01;;;;;;;8.43;5.38;;;307.30;2304.00;;;;;;5401715;26;19925;-78
2024/04/21 06:49:30;;;;;;;;;;;307.50;2304.00;;;;;;5411947;26;20008;-80
2024/04/21 06:51:56;;;;;;;7.10;4.47;;;307.40;2304.00;;;;;;5393122;26;19925;-78
2024/04/21 06:54:21;;;;;;;5.85;4.00;;;307.40;2304.00;;;;;;5402261;26;20003;-79
2024/04/21 06:56:47;;;;;;;6.60;4.45;;;307.40;2304.00;;;;;;5410739;26;20589;-80
2024/04/21 06:59:13;;;;;;;6.78;4.10;;;307.70;2304.00;;;;;;5407532;26;19996;-76
2024/04/21 07:01:39;;;;;;;11.05;6.32;;;308.00;2304.00;;;;;;5389873;26;20047;-76
2024/04/21 07:04:05;;;;;;;9.63;5.13;;;332.90;2329.60;;;;;;5409092;26;19996;-77
2024/04/21 07:06:31;;;;;;;6.40;4.63;;;333.20;2329.60;;;;;;5410096;26;19999;-75
2024/04/21 07:08:57;;;;;;;6.40;4.43;;;333.10;2329.60;;;;;;5389985;26;20105;-78
2024/04/21 07:11:23;;;;;;;7.90;5.07;;;333.30;2329.60;;;;;;5399511;26;20012;-78
2024/04/21 07:13:49;;;;;;;9.80;4.65;;;333.30;2329.60;;;;;;5391294;26;20537;-75
2024/04/21 07:16:14;;;;;;;5.82;3.88;;;333.30;2329.60;;;;;;5402251;26;19999;-76
2024/04/21 07:18:40;;;;;;;5.97;3.78;;;333.20;2329.60;;;;;;5406491;26;19995;-76
2024/04/21 07:21:07;;;;;;;7.88;5.18;;;333.20;2329.60;;;;;;5408771;26;20007;-77
2024/04/21 07:23:33;;;;;;;7.53;4.18;;;333.10;2329.60;;;;;;5400895;26;19999;-77
2024/04/21 07:26:03;;;;;;;8.95;4.70;;;333.20;2329.60;;;;;;5408234;26;19999;-76
2024/04/21 07:28:29;;;;;;;8.98;4.28;;;;;;;;;;5402174;26;20444;-76
2024/04/21 07:30:55;;;;;;;19.40;8.63;;;333.40;2329.60;;;;;;5408864;26;20061;-76
2024/04/21 07:33:22;;;;;;;23.00;11.10;;;358.70;2329.60;;;;;;5398235;26;20585;-75
2024/04/21 07:35:48;;;;;;;8.38;4.40;;;358.60;2329.60;;;;;;5395416;26;19997;-77
2024/04/21 07:38:13;;;;;;;7.88;4.57;;;358.80;2329.60;;;;;;5387454;26;20447;-77
2024/04/21 07:40:39;;;;;;;7.00;4.95;;;359.10;2329.60;;;;;;5387874;26;20000;-80
2024/04/21 07:43:05;;;;;;;6.38;4.03;;;359.10;2329.60;;;;;;5403554;26;19999;-81
2024/04/21 07:45:31;;;;;;;5.70;4.10;;;384.40;2329.60;;;;;;5404180;26;20331;-81
2024/04/21 07:47:57;;;;;;;6.85;4.07;;;384.70;2329.60;;;;;;5404888;26;20046;-77
2024/04/21 07:50:22;;;;;;;5.20;3.83;;;384.70;2329.60;;;;;;5401458;26;20066;-77
2024/04/21 07:52:48;;;;;;;6.50;3.95;;;384.30;2329.60;;;;;;5381679;26;20073;-76
2024/04/21 07:55:14;;;;;;;4.85;3.97;;;384.40;2329.60;;;;;;5386014;26;19997;-80
2024/04/21 07:57:40;;;;;;;5.95;4.03;;;384.60;2278.40;;;;;;5405671;26;20010;-77
2024/04/21 08:00:07;;;;;;;5.97;4.70;;;384.70;2252.80;;;;;;5399197;26;20011;-80
2024/04/21 08:02:32;;;;;;;6.35;4.75;;;409.80;2252.80;;;;;;5389409;26;20004;-83
2024/04/21 08:04:58;;;;;;;5.32;3.83;;;409.70;2252.80;;;;;;5403850;26;20068;-81
2024/04/21 08:07:24;;;;;;;8.70;4.80;;;409.70;2227.20;;;;;;5391963;26;20019;-77
2024/04/21 08:09:50;;;;;;;9.93;3.72;;;409.70;2278.40;;;;;;5403818;26;19996;-79
2024/04/21 08:12:16;;;;;;;9.48;5.82;;;410.00;2201.60;;;;;;5404963;26;20004;-79
2024/04/21 08:14:42;;;;;;;9.05;4.68;;;410.20;2201.60;;;;;;5389209;26;20070;-76
2024/04/21 08:17:07;;;;;;;6.90;4.20;;;410.30;2176.00;;;;;;5409323;26;19999;-79
2024/04/21 08:19:33;;;;;;;6.43;4.13;;;410.30;2124.80;;;;;;5395396;26;20461;-79
2024/04/21 08:21:59;;;;;;;7.32;4.03;;;435.30;2099.20;;;;;;5397370;26;19992;-76
2024/04/21 08:24:25;;;;;;;12.18;7.13;;;435.30;2099.20;;;;;;5396599;26;20109;-77
2024/04/21 08:26:54;;;;;;;8.38;5.13;;;435.50;2048.00;;;;;;5387893;26;19996;-78
2024/04/21 08:29:22;;;;;;;10.93;7.25;;;435.60;2048.00;;;;;;5401824;26;20496;-76
2024/04/21 08:31:48;;;;;;;9.57;5.45;;;436.00;1971.20;;;;;;5394257;26;20074;-77
2024/04/21 08:34:14;;;;;;;7.57;4.60;;;436.10;1945.60;;;;;;5404648;26;20015;-80
2024/04/21 08:36:40;;;;;;;7.70;4.20;;;436.00;1945.60;;;;;;5407120;26;20035;-76
2024/04/21 08:39:06;;;;;;;6.82;3.10;;;460.80;1920.00;;;;;;5407284;26;20332;-76
2024/04/21 08:41:39;;;;;;;6.07;3.42;;;460.90;1894.40;;;;;;5411806;26;20003;-79
2024/04/21 08:44:16;;;;;;;6.75;3.80;;;460.80;1920.00;;;;;;5400544;26;19992;-79
2024/04/21 08:46:42;;;;;;;5.80;3.70;;;435.40;1971.20;;;;;;5396750;26;20033;-78
2024/04/21 08:49:08;;;;;;;6.13;3.88;;;460.90;1971.20;;;;;;5400414;26;20011;-80
2024/04/21 08:51:34;;;;;;;4.65;3.20;;;435.80;1945.60;;;;;;5399095;26;20000;-77
2024/04/21 08:54:01;;;;;;;5.57;3.63;;;435.80;1920.00;;;;;;5416862;26;20021;-77
2024/04/21 08:56:31;;;;;;;8.35;3.70;;;435.90;1920.00;;;;;;5397498;26;20003;-79
2024/04/21 08:58:58;;;;;;;10.73;4.35;;;436.00;1868.80;;;;;;5394840;26;20455;-78
2024/04/21 09:01:26;;;;;;;6.47;3.60;;;436.10;1868.80;;;;;;5412498;26;20003;-76
2024/04/21 09:03:52;;;;;;;5.75;3.53;;;461.40;1843.20;;;;;;5410560;26;20000;-77
2024/04/21 09:06:26;;;;;;;5.70;2.85;;;461.70;1817.60;;;;;;5391991;26;20020;-78
2024/04/21 09:08:53;;;;;;;4.50;3.35;;;486.40;1740.80;;;;;;5404913;26;20032;-78
2024/04/21 09:11:19;;;;;;;7.70;3.63;;;486.40;1740.80;;;;;;5400754;26;20012;-78
2024/04/21 09:13:44;;;;;;;3.78;2.78;;;486.50;1740.80;;;;;;5388869;26;20074;-77
2024/04/21 09:16:10;;;;;;;6.32;2.88;;;486.70;1715.20;;;;;;5387935;26;20000;-76
2024/04/21 09:18:37;;;;;;;4.05;3.22;;;486.80;1715.20;;;;;;5408399;26;20447;-77
2024/04/21 09:21:03;;;;;;;9.48;5.03;;;486.80;1715.20;;;;;;5387804;26;20073;-77
2024/04/21 09:23:29;;;;;;;4.63;2.95;;;487.00;1689.60;;;;;;5409059;26;20000;-80
2024/04/21 09:25:56;;;;;;;4.47;3.25;;;486.70;1638.40;;;;;;5405928;26;20407;-77
2024/04/21 09:28:23;;;;;;;5.03;3.28;;;486.60;1689.60;;;;;;5406573;26;19996;-76
2024/04/21 09:30:50;;;;;;;5.32;3.17;;;461.70;1689.60;;;;;;5393424;26;20004;-77
2024/04/21 09:33:16;;;;;;;5.88;3.95;;;461.40;1766.40;;;;;;5392210;26;20004;-78
2024/04/21 09:35:42;;;;;;;6.55;3.63;;;461.00;1792.00;;;;;;5404271;26;20004;-78
2024/04/21 09:38:08;;;;;;;4.68;3.00;;;460.90;1792.00;;;;;;5412017;26;20078;-80
2024/04/21 09:40:38;;;;;;;5.90;3.33;;;461.10;1766.40;;;;;;5407387;26;20453;-77
2024/04/21 09:43:08;;;;;;;4.50;3.20;;;461.30;1715.20;;;;;;5394356;26;20023;-78
2024/04/21 09:45:34;;;;;;;5.13;3.17;;;461.20;1740.80;;;;;;5394268;26;20003;-76
2024/04/21 09:48:01;;;;;;;6.72;3.13;;;461.00;1740.80;;;;;;5395917;26;20015;-74
2024/04/21 09:50:27;;;;;;;5.32;2.92;;;461.30;1715.20;;;;;;5409932;26;20024;-76
2024/04/21 09:52:57;;;;;;;8.23;3.17;;;461.50;1689.60;;;;;;5405540;26;20385;-74
2024/04/21 09:55:24;;;;;;;6.35;2.70;;;461.20;1715.20;;;;;;5395172;26;20026;-77
2024/04/21 09:58:00;;;;;;;5.68;3.28;;;461.40;1664.00;;;;;;5411143;26;20344;-75
2024/04/21 10:00:31;;;;;;;4.70;3.05;;;460.90;1740.80;;;;;;5390278;26;20016;-75
2024/04/21 10:03:01;;;;;;;4.55;3.13;;;461.70;1689.60;;;;;;5403212;26;20073;-75
2024/04/21 10:05:28;;;;;;;3.95;2.63;;;486.70;1612.80;;;;;;5400345;26;20008;-75
2024/04/21 10:07:58;;;;;;;6.53;4.30;;;487.00;1587.20;;;;;;5396116;26;20080;-75
2024/04/21 10:10:25;;;;;;;5.55;3.53;;;487.30;1587.20;;;;;;5411202;26;20482;-74
2024/04/21 10:12:54;;;;;;;5.82;2.95;;;487.00;1587.20;;;;;;5405950;26;20000;-74
2024/04/21 10:15:22;;;;;;;3.92;2.72;;;486.80;1612.80;;;;;;5399875;26;20011;-75
2024/04/21 10:17:58;;;;;;;4.35;2.90;;;486.50;1638.40;;;;;;5410860;26;20050;-75
2024/04/21 10:20:34;;;;;;;;;;;461.70;1689.60;;;;;;5406251;26;20000;-75
2024/04/21 10:23:06;;;;;;;4.55;2.95;;;461.60;1664.00;;;;;;5404512;26;19994;-76
2024/04/21 10:25:36;;;;;;;4.22;2.42;;;461.50;1664.00;;;;;;5391623;26;19997;-78
2024/04/21 10:28:03;;;;;;;5.28;3.03;;;486.60;1638.40;;;;;;5398166;26;19996;-78
2024/04/21 10:30:30;;;;;;;3.53;2.60;;;487.20;1612.80;;;;;;5385199;26;20073;-77
2024/04/21 10:33:00;;;;;;;3.80;2.67;;;487.30;1561.60;;;;;;5398539;26;19997;-76
2024/04/21 10:35:35;;;;;;;3.95;2.42;;;487.20;1536.00;;;;;;5402531;26;19996;-76
2024/04/21 10:38:13;;;;;;;7.22;3.70;;;486.50;1536.00;;;;;;5390804;26;19994;-75
2024/04/21 10:40:44;;;;;;;6.55;3.30;;;486.50;1587.20;;;;;;5407859;26;20072;-76
2024/04/21 10:43:10;;;;;;;5.05;2.78;;;487.10;1561.60;;;;;;5393466;26;20010;-76
2024/04/21 10:45:37;;;;;;;4.22;2.72;;;512.00;1510.40;;;;;;5394575;26;20000;-77
2024/04/21 10:48:05;;;;;;;4.75;2.72;;;486.90;1536.00;;;;;;5396531;26;20012;-77
2024/04/21 10:50:34;;;;;;;6.35;2.85;;;487.00;1510.40;;;;;;5393486;26;20023;-76
2024/04/21 10:53:00;;;;;;;4.25;2.88;;;487.20;1484.80;;;;;;5416447;26;20019;-78
2024/04/21 10:55:25;;;;;;;5.03;2.78;;;487.00;1536.00;;;;;;5400508;26;19999;-76
2024/04/21 10:57:52;;;;;;;9.88;5.68;;;487.00;1561.60;;;;;;5398091;26;20481;-78
2024/04/21 11:00:18;;;;;;;6.05;3.63;;;486.80;1587.20;;;;;;5410167;26;20014;-78
2024/04/21 11:02:43;;;;;;;5.45;3.03;;;461.50;1612.80;;;;;;5403373;26;19999;-79
2024/04/21 11:05:09;;;;;;;4.40;3.05;;;461.40;1612.80;;;;;;5386479;26;20363;-76
2024/04/21 11:07:35;;;;;;;5.32;3.22;;;486.80;1561.60;;;;;;5393583;26;20099;-76
2024/04/21 11:10:02;;;;;;;4.63;3.10;;;487.00;1561.60;;;;;;5411192;26;20014;-77
2024/04/21 11:12:29;;;;;;;4.32;2.60;;;487.10;1536.00;;;;;;5391719;26;20012;-76
2024/04/21 11:14:59;;;;;;;4.32;2.55;;;512.10;1510.40;;;;;;5404330;26;20457;-75
2024/04/21 11:17:25;;;;;;;4.20;3.00;;;512.60;1484.80;;;;;;5394481;26;20000;-75
2024/04/21 11:19:51;;;;;;;4.55;3.03;;;512.50;1433.60;;;;;;5403614;26;20014;-75
2024/04/21 11:22:18;;;;;;;7.63;4.55;;;512.90;1433.60;;;;;;5394367;26;19996;-74
2024/04/21 11:24:47;;;;;;;4.75;2.90;;;538.10;1433.60;;;;;;5388147;26;20327;-76
2024/04/21 11:27:13;;;;;;;3.70;2.40;;;538.50;1382.40;;;;;;5404520;26;19995;-79
2024/04/21 11:29:42;;;;;;;6.22;3.97;;;563.20;1408.00;;;;;;5409323;26;20014;-76
2024/04/21 11:32:10;;;;;;;5.00;3.20;;;563.30;1382.40;;;;;;5407282;26;20494;-78
2024/04/21 11:34:37;;;;;;;3.35;2.22;;;538.40;1382.40;;;;;;5405343;26;20039;-80
2024/04/21 11:37:04;;;;;;;4.32;2.63;;;512.60;1408.00;;;;;;5396524;26;20459;-79
2024/04/21 11:39:29;;;;;;;4.60;3.08;;;512.50;1433.60;;;;;;5395286;26;20000;-78
2024/04/21 11:41:55;;;;;;;4.72;2.95;;;512.70;1433.60;;;;;;5410998;26;20800;-78
2024/04/21 11:44:21;;;;;;;4.18;2.92;;;537.70;1433.60;;;;;;5388376;26;20000;-76
2024/04/21 11:46:51;;;;;;;4.15;2.83;;;537.90;1408.00;;;;;;5410562;26;19995;-77
2024/04/21 11:49:17;;;;;;;4.70;3.35;;;538.20;1408.00;;;;;;5397302;26;20011;-77
2024/04/21 11:51:43;;;;;;;5.78;3.55;;;538.00;1408.00;;;;;;5391496;26;20390;-75
2024/04/21 11:54:09;;;;;;;4.70;2.92;;;512.80;1408.00;;;;;;5410795;26;20000;-79
2024/04/21 11:56:35;;;;;;;4.72;2.67;;;512.20;1433.60;;;;;;5399140;26;19992;-79
2024/04/21 11:59:00;;;;;;;4.20;3.08;;;512.00;1433.60;;;;;;5410131;26;20000;-77
2024/04/21 12:01:26;;;;;;;5.32;3.47;;;487.10;1459.20;;;;;;5414171;26;20000;-77
2024/04/21 12:03:52;;;;;;;5.38;2.97;;;487.00;1510.40;;;;;;5395608;26;20012;-77
2024/04/21 12:06:18;;;;;;;5.72;2.60;;;487.00;1459.20;;;;;;5397304;26;20015;-77
2024/04/21 12:08:45;;;;;;;3.75;2.70;;;487.00;1484.80;;;;;;5397743;26;20001;-79
2024/04/21 12:11:11;;;;;;;3.47;2.30;;;487.10;1433.60;;;;;;5391216;26;20008;-78
2024/04/21 12:13:39;;;;;;;3.58;2.30;;;487.30;1408.00;;;;;;5390128;26;19993;-81
2024/04/21 12:16:05;;;;;;;4.18;2.40;;;487.10;1408.00;;;;;;5400271;26;20011;-79
2024/04/21 12:18:30;;;;;;;4.75;2.60;;;486.80;1459.20;;;;;;5396993;26;20004;-78